createdAt,value
2023-03-14T00:00:20.277Z,69.12
2023-03-14T00:02:53.075Z,69.46
2023-03-14T00:05:20.602Z,69.55
2023-03-14T00:07:47.676Z,69.56
2023-03-14T00:10:16.474Z,68.54
2023-03-14T00:12:43.687Z,68.86
2023-03-14T00:15:12.899Z,68.92
2023-03-14T00:17:40.509Z,68.43
2023-03-14T00:20:10.342Z,68.21
2023-03-14T00:22:40.654Z,68.37
2023-03-14T00:25:10.627Z,67.96
2023-03-14T00:27:38.028Z,68.31
2023-03-14T00:30:09.126Z,67.35
2023-03-14T00:32:36.566Z,67.77
2023-03-14T00:35:05.959Z,66.92
2023-03-14T00:37:33.349Z,67.33
2023-03-14T00:40:00.764Z,68.23
2023-03-14T00:42:28.435Z,67.85
2023-03-14T00:44:55.515Z,67.88
2023-03-14T00:47:22.659Z,67.93
2023-03-14T00:49:49.917Z,68.05
2023-03-14T00:52:17.027Z,68.08
2023-03-14T00:54:44.234Z,67.45
2023-03-14T00:57:11.234Z,67.85
2023-03-14T00:59:38.621Z,67.29
2023-03-14T01:02:06.033Z,67.40
2023-03-14T01:04:33.172Z,67.44
2023-03-14T01:07:00.295Z,67.70
2023-03-14T01:09:27.528Z,67.27
2023-03-14T01:11:54.591Z,67.80
2023-03-14T01:14:21.681Z,67.45
2023-03-14T01:16:48.857Z,67.79
2023-03-14T01:19:16.627Z,67.64
2023-03-14T01:21:43.692Z,67.53
2023-03-14T01:24:12.525Z,67.60
2023-03-14T01:26:39.647Z,67.27
2023-03-14T01:29:07.941Z,67.37
2023-03-14T01:31:37.823Z,67.32
2023-03-14T01:34:05.138Z,66.89
2023-03-14T01:36:32.625Z,67.44
2023-03-14T01:39:02.092Z,67.04
2023-03-14T01:41:29.162Z,67.28
2023-03-14T01:43:58.845Z,66.56
2023-03-14T01:46:29.492Z,67.55
2023-03-14T01:49:05.340Z,66.28
2023-03-14T01:52:12.807Z,67.08
2023-03-14T01:54:44.750Z,65.99
2023-03-14T01:57:31.257Z,65.69
2023-03-14T02:00:13.884Z,65.40
2023-03-14T02:02:46.342Z,65.56
2023-03-14T02:05:35.852Z,65.48
2023-03-14T02:08:20.623Z,64.53
2023-03-14T02:10:52.049Z,64.88
2023-03-14T02:13:27.057Z,65.16
2023-03-14T02:16:14.240Z,65.42
2023-03-14T02:19:12.481Z,64.85
2023-03-14T02:22:13.843Z,64.94
2023-03-14T02:25:14.637Z,65.60
2023-03-14T02:27:42.735Z,64.94
2023-03-14T02:30:19.046Z,65.71
2023-03-14T02:32:56.075Z,65.88
2023-03-14T02:35:28.273Z,65.95
2023-03-14T02:38:29.847Z,65.04
2023-03-14T02:40:57.078Z,65.65
2023-03-14T02:43:24.581Z,65.39
2023-03-14T02:45:58.228Z,65.61
2023-03-14T02:48:49.656Z,66.21
2023-03-14T02:51:17.674Z,67.03
2023-03-14T02:53:51.536Z,66.72
2023-03-14T02:56:23.107Z,66.67
2023-03-14T02:58:50.482Z,66.86
2023-03-14T03:01:40.768Z,67.12
2023-03-14T03:04:08.826Z,67.36
2023-03-14T03:06:35.836Z,67.39
2023-03-14T03:09:03.116Z,67.82
2023-03-14T03:11:30.610Z,67.71
2023-03-14T03:13:57.678Z,68.24
2023-03-14T03:16:26.009Z,68.42
2023-03-14T03:18:53.511Z,68.54
2023-03-14T03:21:24.500Z,68.92
2023-03-14T03:23:51.950Z,68.00
2023-03-14T03:26:19.004Z,69.11
2023-03-14T03:28:46.142Z,68.25
2023-03-14T03:31:14.775Z,69.04
2023-03-14T03:33:42.031Z,69.20
2023-03-14T03:36:10.381Z,68.18
2023-03-14T03:38:40.084Z,68.97
2023-03-14T03:41:08.412Z,69.27
2023-03-14T03:43:36.399Z,70.08
2023-03-14T03:46:07.251Z,70.12
2023-03-14T03:48:35.896Z,69.42
2023-03-14T03:51:06.125Z,69.12
2023-03-14T03:53:34.480Z,69.85
2023-03-14T03:56:07.423Z,69.57
2023-03-14T03:58:35.204Z,70.13
2023-03-14T04:01:03.690Z,70.25
2023-03-14T04:03:31.178Z,70.15
2023-03-14T04:06:11.966Z,70.03
2023-03-14T04:08:44.654Z,70.53
2023-03-14T04:11:31.419Z,70.33
2023-03-14T04:14:18.782Z,70.52
2023-03-14T04:16:46.028Z,70.21
2023-03-14T04:19:17.104Z,70.52
2023-03-14T04:21:48.115Z,70.75
2023-03-14T04:24:15.703Z,70.79
2023-03-14T04:26:45.836Z,70.91
2023-03-14T04:29:13.590Z,71.28
2023-03-14T04:31:42.298Z,71.16
2023-03-14T04:34:10.096Z,71.51
2023-03-14T04:36:44.058Z,70.68
2023-03-14T04:39:16.864Z,71.06
2023-03-14T04:41:52.107Z,71.96
2023-03-14T04:44:19.524Z,72.86
2023-03-14T04:46:47.120Z,73.28
2023-03-14T04:49:14.534Z,73.32
2023-03-14T04:51:41.867Z,74.67
2023-03-14T04:54:10.263Z,74.97
2023-03-14T04:56:38.478Z,75.29
2023-03-14T04:59:06.667Z,76.32
2023-03-14T05:01:38.530Z,76.52
2023-03-14T05:04:28.566Z,77.25
2023-03-14T05:07:15.641Z,77.58
2023-03-14T05:10:01.123Z,78.05
2023-03-14T05:12:46.568Z,77.94
2023-03-14T05:15:32.315Z,78.26
2023-03-14T05:18:05.715Z,78.44
2023-03-14T05:20:53.172Z,78.14
2023-03-14T05:23:39.017Z,78.48
2023-03-14T05:26:21.219Z,79.40
2023-03-14T05:28:58.546Z,79.42
2023-03-14T05:31:57.791Z,79.14
2023-03-14T05:34:47.297Z,79.36
2023-03-14T05:37:31.335Z,79.35
2023-03-14T05:40:19.042Z,79.35
2023-03-14T05:43:09.178Z,79.11
2023-03-14T05:45:43.416Z,79.21
2023-03-14T05:48:26.469Z,80.64
2023-03-14T05:51:22.535Z,80.30
2023-03-14T05:54:17.147Z,80.93
2023-03-14T05:56:54.314Z,79.93
2023-03-14T05:59:21.781Z,80.19
2023-03-14T06:02:07.107Z,80.02
2023-03-14T06:04:46.338Z,80.88
2023-03-14T06:07:13.590Z,80.76
2023-03-14T06:09:41.088Z,81.07
2023-03-14T06:12:08.908Z,81.13
2023-03-14T06:14:41.612Z,81.64
2023-03-14T06:17:09.715Z,81.75
2023-03-14T06:19:44.591Z,82.47
2023-03-14T06:22:14.538Z,82.46
2023-03-14T06:24:41.989Z,82.70
2023-03-14T06:27:09.138Z,82.46
2023-03-14T06:29:36.257Z,83.39
2023-03-14T06:32:04.118Z,82.53
2023-03-14T06:34:34.358Z,82.30
2023-03-14T06:37:02.030Z,82.75
2023-03-14T06:39:29.869Z,82.76
2023-03-14T06:42:04.795Z,83.42
2023-03-14T06:44:32.355Z,83.36
2023-03-14T06:46:59.761Z,83.39
2023-03-14T06:49:27.108Z,83.26
2023-03-14T06:51:58.764Z,83.88
2023-03-14T06:54:25.808Z,83.49
2023-03-14T06:56:53.118Z,83.43
2023-03-14T06:59:20.248Z,83.83
2023-03-14T07:01:51.736Z,83.23
2023-03-14T07:04:19.057Z,82.93
2023-03-14T07:06:51.050Z,83.02
2023-03-14T07:09:18.421Z,83.46
2023-03-14T07:11:53.837Z,83.47
2023-03-14T07:14:21.941Z,83.67
2023-03-14T07:16:49.995Z,83.95
2023-03-14T07:19:17.603Z,84.57
2023-03-14T07:21:46.020Z,84.80
2023-03-14T07:24:15.226Z,85.19
2023-03-14T07:26:43.210Z,85.71
2023-03-14T07:29:11.457Z,85.66
2023-03-14T07:31:40.817Z,86.53
2023-03-14T07:34:08.591Z,86.95
2023-03-14T07:36:39.777Z,87.24
2023-03-14T07:39:07.088Z,87.66
2023-03-14T07:41:40.830Z,87.59
2023-03-14T07:44:26.143Z,87.63
2023-03-14T07:46:53.754Z,88.30
2023-03-14T07:49:21.350Z,88.47
2023-03-14T07:51:50.011Z,88.57
2023-03-14T07:54:18.724Z,88.74
2023-03-14T07:56:47.937Z,88.96
2023-03-14T07:59:16.314Z,88.14
2023-03-14T08:01:44.030Z,89.19
2023-03-14T08:04:11.862Z,89.02
2023-03-14T08:06:39.113Z,89.51
2023-03-14T08:09:06.296Z,89.29
2023-03-14T08:11:33.349Z,88.82
2023-03-14T08:14:00.435Z,89.72
2023-03-14T08:16:27.721Z,89.04
2023-03-14T08:18:55.156Z,90.22
2023-03-14T08:21:22.373Z,89.92
2023-03-14T08:23:49.520Z,89.56
2023-03-14T08:26:17.081Z,89.77
2023-03-14T08:28:44.439Z,90.89
2023-03-14T08:31:11.647Z,91.16
2023-03-14T08:33:39.044Z,90.59
2023-03-14T08:36:06.839Z,90.19
2023-03-14T08:38:34.007Z,90.91
2023-03-14T08:41:03.339Z,90.91
2023-03-14T08:43:31.017Z,89.72
2023-03-14T08:46:00.483Z,89.66
2023-03-14T08:48:28.516Z,89.59
2023-03-14T08:50:57.545Z,90.06
2023-03-14T08:53:24.656Z,88.93
2023-03-14T08:55:55.515Z,89.09
2023-03-14T08:58:24.711Z,89.49
2023-03-14T09:00:52.104Z,88.52
2023-03-14T09:03:19.340Z,89.02
2023-03-14T09:05:46.553Z,89.11
2023-03-14T09:08:13.660Z,88.60
2023-03-14T09:10:42.521Z,88.19
2023-03-14T09:13:09.707Z,88.86
2023-03-14T09:15:36.992Z,88.61
2023-03-14T09:18:04.231Z,88.99
2023-03-14T09:20:31.471Z,88.37
2023-03-14T09:22:58.573Z,88.47
2023-03-14T09:25:25.812Z,88.21
2023-03-14T09:27:52.918Z,88.28
2023-03-14T09:30:20.051Z,87.82
2023-03-14T09:32:47.285Z,87.73
2023-03-14T09:35:14.331Z,87.24
2023-03-14T09:37:41.444Z,86.59
2023-03-14T09:40:15.055Z,86.72
2023-03-14T09:42:43.044Z,87.74
2023-03-14T09:45:38.259Z,87.66
2023-03-14T09:48:06.307Z,87.43
2023-03-14T09:50:51.415Z,87.56
2023-03-14T09:53:39.196Z,87.59
2023-03-14T09:56:31.098Z,87.47
2023-03-14T09:59:01.918Z,88.11
2023-03-14T10:01:33.174Z,86.89
2023-03-14T10:04:20.440Z,87.59
2023-03-14T10:06:48.792Z,87.41
2023-03-14T10:09:28.507Z,87.29
2023-03-14T10:11:58.767Z,87.27
2023-03-14T10:14:36.662Z,87.40
2023-03-14T10:17:14.487Z,86.34
2023-03-14T10:20:16.496Z,86.48
2023-03-14T10:22:43.783Z,85.97
2023-03-14T10:25:29.258Z,86.42
2023-03-14T10:27:56.672Z,86.24
2023-03-14T10:30:46.698Z,86.74
2023-03-14T10:33:38.130Z,86.12
2023-03-14T10:36:20.564Z,85.75
2023-03-14T10:38:47.960Z,85.52
2023-03-14T10:41:27.701Z,85.85
2023-03-14T10:43:59.617Z,85.31
2023-03-14T10:46:32.606Z,84.23
2023-03-14T10:49:30.875Z,83.98
2023-03-14T10:52:30.807Z,83.62
2023-03-14T10:55:12.122Z,84.51
2023-03-14T10:57:44.289Z,84.17
2023-03-14T11:00:17.244Z,84.52
2023-03-14T11:03:21.637Z,83.30
2023-03-14T11:06:17.258Z,82.25
2023-03-14T11:09:03.406Z,83.47
2023-03-14T11:11:31.289Z,82.49
2023-03-14T11:14:16.646Z,83.01
2023-03-14T11:17:30.787Z,81.75
2023-03-14T11:20:32.488Z,82.27
2023-03-14T11:23:18.138Z,82.74
2023-03-14T11:26:06.546Z,81.72
2023-03-14T11:28:44.444Z,82.06
2023-03-14T11:31:32.407Z,82.28
2023-03-14T11:34:16.488Z,82.63
2023-03-14T11:37:21.725Z,82.51
2023-03-14T11:40:01.889Z,83.64
2023-03-14T11:42:31.025Z,83.12
2023-03-14T11:45:01.277Z,83.34
2023-03-14T11:47:41.398Z,82.02
2023-03-14T11:50:23.897Z,81.94
2023-03-14T11:53:06.287Z,81.59
2023-03-14T11:55:37.585Z,81.05
2023-03-14T11:58:34.768Z,80.37
2023-03-14T12:01:10.733Z,79.00
2023-03-14T12:03:51.419Z,78.50
2023-03-14T12:06:25.128Z,78.98
2023-03-14T12:08:59.678Z,79.25
2023-03-14T12:11:47.837Z,79.79
2023-03-14T12:14:35.650Z,79.10
2023-03-14T12:17:22.176Z,79.76
2023-03-14T12:20:15.573Z,79.91
2023-03-14T12:22:57.968Z,80.11
2023-03-14T12:25:32.186Z,79.64
2023-03-14T12:28:22.404Z,78.48
2023-03-14T12:30:49.789Z,78.78
2023-03-14T12:33:19.958Z,78.83
2023-03-14T12:35:52.767Z,79.45
2023-03-14T12:38:25.625Z,79.82
2023-03-14T12:41:20.222Z,79.27
2023-03-14T12:43:47.958Z,79.22
2023-03-14T12:46:18.382Z,79.67
2023-03-14T12:48:49.028Z,79.58
2023-03-14T12:51:19.185Z,78.88
2023-03-14T12:54:29.670Z,78.07
2023-03-14T12:57:05.108Z,78.11
2023-03-14T12:59:53.826Z,78.22
2023-03-14T13:02:43.034Z,77.88
2023-03-14T13:05:21.155Z,78.01
2023-03-14T13:07:48.205Z,78.29
2023-03-14T13:10:38.121Z,77.68
2023-03-14T13:13:21.448Z,77.58
2023-03-14T13:15:54.929Z,76.91
2023-03-14T13:18:44.000Z,77.64
2023-03-14T13:21:23.081Z,78.15
2023-03-14T13:24:00.249Z,77.61
2023-03-14T13:26:37.626Z,77.05
2023-03-14T13:29:26.155Z,76.00
2023-03-14T13:31:58.743Z,75.74
2023-03-14T13:34:35.910Z,75.64
2023-03-14T13:37:03.598Z,75.03
2023-03-14T13:39:32.364Z,74.99
2023-03-14T13:42:01.795Z,74.48
2023-03-14T13:44:34.754Z,74.30
2023-03-14T13:47:05.153Z,74.51
2023-03-14T13:49:36.716Z,74.28
2023-03-14T13:52:05.385Z,73.61
2023-03-14T13:54:33.598Z,73.87
2023-03-14T13:57:06.890Z,74.08
2023-03-14T13:59:39.801Z,74.78
2023-03-14T14:02:18.315Z,75.54
2023-03-14T14:04:47.730Z,75.67
2023-03-14T14:07:21.067Z,74.99
2023-03-14T14:09:53.980Z,74.72
2023-03-14T14:12:40.964Z,74.11
2023-03-14T14:15:17.130Z,73.86
2023-03-14T14:17:53.190Z,73.54
2023-03-14T14:20:33.556Z,73.25
2023-03-14T14:23:17.528Z,73.91
2023-03-14T14:25:45.218Z,73.89
2023-03-14T14:28:35.054Z,74.12
2023-03-14T14:31:21.046Z,74.49
2023-03-14T14:33:57.071Z,74.33
2023-03-14T14:36:26.791Z,73.61
2023-03-14T14:39:05.874Z,74.07
2023-03-14T14:41:41.568Z,74.01
2023-03-14T14:44:13.146Z,73.06
2023-03-14T14:46:40.872Z,72.85
2023-03-14T14:49:15.487Z,71.32
2023-03-14T14:51:48.603Z,71.19
2023-03-14T14:54:22.470Z,71.07
2023-03-14T14:56:53.228Z,70.86
2023-03-14T14:59:30.093Z,70.94
2023-03-14T15:02:06.779Z,70.65
2023-03-14T15:04:36.984Z,71.09
2023-03-14T15:07:04.485Z,71.11
2023-03-14T15:09:31.517Z,71.32
2023-03-14T15:11:58.622Z,71.62
2023-03-14T15:14:25.685Z,72.03
2023-03-14T15:16:52.828Z,72.04
2023-03-14T15:19:27.296Z,71.76
2023-03-14T15:21:54.970Z,72.42
2023-03-14T15:24:23.475Z,72.95
2023-03-14T15:26:53.567Z,73.54
2023-03-14T15:29:20.787Z,74.40
2023-03-14T15:31:48.539Z,73.88
2023-03-14T15:34:16.167Z,73.91
2023-03-14T15:36:43.504Z,74.87
2023-03-14T15:39:12.625Z,74.60
2023-03-14T15:41:40.154Z,73.72
2023-03-14T15:44:07.290Z,74.25
2023-03-14T15:46:34.478Z,74.02
2023-03-14T15:49:01.637Z,73.89
2023-03-14T15:51:28.687Z,74.22
2023-03-14T15:53:55.804Z,74.22
2023-03-14T15:56:25.930Z,74.17
2023-03-14T15:58:53.273Z,74.19
2023-03-14T16:01:20.593Z,74.75
2023-03-14T16:03:49.474Z,74.42
2023-03-14T16:06:16.538Z,74.86
2023-03-14T16:08:43.821Z,75.39
2023-03-14T16:11:13.678Z,75.30
2023-03-14T16:13:40.970Z,75.27
2023-03-14T16:16:09.763Z,75.92
2023-03-14T16:18:38.857Z,75.68
2023-03-14T16:21:11.661Z,75.93
2023-03-14T16:23:39.256Z,76.25
2023-03-14T16:26:13.028Z,75.87
2023-03-14T16:28:40.086Z,76.00
2023-03-14T16:31:11.891Z,76.07
2023-03-14T16:33:40.310Z,75.55
2023-03-14T16:36:12.344Z,75.71
2023-03-14T16:38:42.466Z,75.86
2023-03-14T16:41:20.217Z,76.36
2023-03-14T16:43:52.318Z,75.96
2023-03-14T16:46:22.608Z,76.05
2023-03-14T16:48:49.965Z,76.04
2023-03-14T16:51:17.455Z,76.48
2023-03-14T16:53:45.958Z,76.90
2023-03-14T16:56:14.326Z,76.74
2023-03-14T16:58:42.512Z,76.30
2023-03-14T17:01:13.072Z,76.73
2023-03-14T17:03:44.034Z,76.60
2023-03-14T17:06:13.556Z,76.53
2023-03-14T17:08:41.069Z,76.82
2023-03-14T17:11:08.412Z,77.36
2023-03-14T17:13:36.019Z,76.87
2023-03-14T17:16:03.639Z,76.86
2023-03-14T17:18:31.767Z,77.57
2023-03-14T17:20:59.674Z,77.34
2023-03-14T17:23:28.855Z,77.38
2023-03-14T17:25:56.484Z,77.36
2023-03-14T17:28:26.584Z,77.79
2023-03-14T17:31:11.191Z,77.15
2023-03-14T17:33:39.250Z,77.46
2023-03-14T17:36:08.090Z,78.17
2023-03-14T17:38:36.984Z,78.04
2023-03-14T17:41:12.714Z,78.43
2023-03-14T17:43:42.789Z,77.88
2023-03-14T17:46:15.758Z,78.24
2023-03-14T17:48:45.625Z,78.36
2023-03-14T17:51:14.104Z,78.45
2023-03-14T17:53:41.276Z,78.46
2023-03-14T17:56:09.802Z,78.05
2023-03-14T17:58:38.246Z,77.76
2023-03-14T18:01:15.264Z,77.62
2023-03-14T18:03:43.020Z,78.49
2023-03-14T18:06:15.635Z,78.02
2023-03-14T18:08:44.125Z,77.69
2023-03-14T18:11:12.630Z,77.84
2023-03-14T18:13:41.417Z,77.55
2023-03-14T18:16:14.228Z,78.50
2023-03-14T18:18:43.224Z,77.98
2023-03-14T18:21:11.489Z,78.26
2023-03-14T18:23:42.136Z,77.92
2023-03-14T18:26:09.808Z,78.08
2023-03-14T18:28:36.883Z,78.16
2023-03-14T18:31:11.727Z,78.57
2023-03-14T18:33:41.682Z,78.06
2023-03-14T18:36:10.777Z,78.16
2023-03-14T18:38:43.107Z,78.24
2023-03-14T18:41:13.343Z,78.85
2023-03-14T18:43:41.629Z,77.80
2023-03-14T18:46:10.538Z,78.38
2023-03-14T18:48:43.564Z,78.50
2023-03-14T18:51:15.331Z,78.72
2023-03-14T18:53:43.970Z,78.11
2023-03-14T18:56:14.111Z,79.05
2023-03-14T18:58:41.961Z,78.79
2023-03-14T19:01:11.791Z,78.64
2023-03-14T19:03:43.373Z,78.87
2023-03-14T19:06:12.237Z,79.13
2023-03-14T19:08:42.249Z,78.29
2023-03-14T19:11:12.747Z,78.18
2023-03-14T19:13:42.072Z,78.91
2023-03-14T19:16:14.399Z,78.54
2023-03-14T19:18:43.162Z,78.71
2023-03-14T19:21:13.548Z,78.68
2023-03-14T19:23:42.855Z,78.46
2023-03-14T19:26:09.986Z,78.68
2023-03-14T19:28:37.710Z,78.77
2023-03-14T19:31:11.994Z,78.28
2023-03-14T19:33:40.199Z,78.62
2023-03-14T19:36:08.294Z,78.60
2023-03-14T19:38:35.674Z,78.87
2023-03-14T19:41:03.132Z,78.47
2023-03-14T19:43:30.265Z,77.90
2023-03-14T19:45:57.493Z,78.03
2023-03-14T19:48:30.347Z,78.56
2023-03-14T19:51:00.414Z,77.39
2023-03-14T19:53:27.652Z,78.48
2023-03-14T19:55:55.511Z,78.05
2023-03-14T19:58:23.791Z,78.47
2023-03-14T20:00:51.673Z,78.04
2023-03-14T20:03:19.615Z,77.34
2023-03-14T20:05:46.823Z,77.81
2023-03-14T20:08:13.963Z,77.90
2023-03-14T20:10:41.262Z,78.03
2023-03-14T20:13:19.229Z,78.11
2023-03-14T20:15:48.567Z,77.85
2023-03-14T20:18:16.537Z,77.93
2023-03-14T20:20:43.870Z,77.57
2023-03-14T20:23:11.245Z,77.92
2023-03-14T20:25:38.397Z,77.43
2023-03-14T20:28:05.700Z,77.84
2023-03-14T20:30:33.476Z,78.46
2023-03-14T20:33:04.792Z,79.02
2023-03-14T20:35:34.254Z,79.09
2023-03-14T20:38:01.695Z,79.03
2023-03-14T20:40:29.048Z,78.80
2023-03-14T20:42:56.643Z,79.64
2023-03-14T20:45:23.775Z,78.82
2023-03-14T20:47:51.043Z,80.24
2023-03-14T20:50:18.550Z,79.37
2023-03-14T20:52:45.903Z,79.51
2023-03-14T20:55:13.515Z,79.29
2023-03-14T20:57:41.408Z,79.53
2023-03-14T21:00:09.811Z,80.06
2023-03-14T21:02:37.867Z,80.17
2023-03-14T21:05:06.533Z,80.94
2023-03-14T21:07:37.081Z,80.08
2023-03-14T21:10:04.513Z,80.24
2023-03-14T21:12:31.525Z,79.78
2023-03-14T21:14:58.557Z,80.02
2023-03-14T21:17:25.714Z,80.24
2023-03-14T21:19:58.362Z,80.41
2023-03-14T21:22:28.079Z,79.49
2023-03-14T21:24:58.099Z,79.79
2023-03-14T21:27:25.823Z,80.55
2023-03-14T21:29:53.103Z,80.33
2023-03-14T21:32:23.608Z,79.79
2023-03-14T21:34:51.353Z,79.72
2023-03-14T21:37:18.745Z,80.20
2023-03-14T21:39:45.997Z,79.66
2023-03-14T21:42:15.643Z,79.10
2023-03-14T21:44:48.555Z,79.03
2023-03-14T21:47:16.868Z,78.83
2023-03-14T21:49:44.884Z,79.55
2023-03-14T21:52:14.308Z,79.02
2023-03-14T21:54:48.776Z,78.84
2023-03-14T21:57:17.398Z,78.83
2023-03-14T21:59:46.774Z,78.88
2023-03-14T22:02:19.216Z,77.95
2023-03-14T22:04:48.933Z,78.55
2023-03-14T22:07:21.262Z,78.65
2023-03-14T22:09:48.515Z,78.76
2023-03-14T22:12:19.642Z,77.63
2023-03-14T22:14:48.300Z,77.69
2023-03-14T22:17:16.095Z,76.95
2023-03-14T22:19:43.799Z,76.93
2023-03-14T22:22:11.003Z,77.55
2023-03-14T22:24:37.994Z,76.99
2023-03-14T22:27:05.079Z,77.15
2023-03-14T22:29:32.376Z,77.24
2023-03-14T22:31:59.548Z,77.21
2023-03-14T22:34:31.730Z,76.57
2023-03-14T22:37:05.721Z,76.21
2023-03-14T22:39:33.835Z,76.15
2023-03-14T22:42:01.903Z,76.42
2023-03-14T22:44:32.909Z,76.76
2023-03-14T22:47:01.164Z,76.99
2023-03-14T22:49:32.442Z,75.63
2023-03-14T22:51:59.582Z,76.25
2023-03-14T22:54:26.736Z,76.18
2023-03-14T22:56:53.985Z,76.40
2023-03-14T22:59:21.052Z,76.76
2023-03-14T23:01:48.123Z,75.81
2023-03-14T23:04:15.214Z,76.15
2023-03-14T23:06:44.394Z,76.99
2023-03-14T23:09:12.093Z,76.10
2023-03-14T23:11:40.135Z,75.38
2023-03-14T23:14:07.295Z,75.12
2023-03-14T23:16:40.658Z,75.73
2023-03-14T23:19:10.584Z,75.19
2023-03-14T23:21:37.872Z,75.44
2023-03-14T23:24:06.122Z,75.33
2023-03-14T23:26:35.395Z,75.42
2023-03-14T23:29:07.219Z,75.48
2023-03-14T23:31:34.924Z,75.34
2023-03-14T23:34:02.806Z,75.26
2023-03-14T23:36:30.229Z,74.96
2023-03-14T23:38:57.337Z,75.25
2023-03-14T23:41:24.380Z,74.37
2023-03-14T23:43:51.385Z,74.92
2023-03-14T23:46:18.408Z,75.05
2023-03-14T23:48:47.064Z,74.58
2023-03-14T23:51:15.697Z,74.63
2023-03-14T23:53:43.810Z,74.69
2023-03-14T23:56:18.160Z,74.10
2023-03-14T23:58:45.768Z,74.79
